Time;durP1;ratioP1;P1;durP2;ratioP2;P2;SDS_P1;SDS_P2;PMS_P1;PMS_P2;Temp;Humidity;BMP_temperature;BMP_pressure;BME280_temperature;BME280_humidity;BME280_pressure;Samples;Min_cycle;Max_cycle;Signal;HPM_P1;HPM_P2
2021/05/27 00:00:53;;;;;;;5.42;2.75;;;;;;;17.32;65.03;101107.45;470939;109;922397;-72
2021/05/27 00:01:58;;;;;;;5.82;3.08;;;;;;;17.31;65.38;101106.62;480014;109;922850;-72
2021/05/27 00:03:03;;;;;;;7.29;2.71;;;;;;;17.30;65.44;101101.37;484025;107;922967;-74
2021/05/27 00:04:08;;;;;;;5.74;2.44;;;;;;;17.28;65.53;101106.28;491157;105;923951;-73
2021/05/27 00:05:14;;;;;;;5.49;2.51;;;;;;;17.27;65.54;101102.69;485106;107;930623;-70
2021/05/27 00:06:21;;;;;;;6.19;2.16;;;;;;;17.26;65.60;101102.92;485045;107;923089;-71
2021/05/27 00:07:28;;;;;;;3.18;2.04;;;;;;;17.25;65.59;101104.87;480576;107;924086;-72
2021/05/27 00:08:32;;;;;;;3.80;2.22;;;;;;;17.26;65.23;101105.68;481395;107;922615;-73
2021/05/27 00:09:36;;;;;;;3.64;1.93;;;;;;;17.27;64.92;101102.69;488344;107;930698;-73
2021/05/27 00:10:40;;;;;;;4.71;2.50;;;;;;;17.29;64.67;101102.45;488484;107;923062;-73
2021/05/27 00:11:44;;;;;;;5.92;2.10;;;;;;;17.30;64.56;101099.45;491559;105;924077;-71
2021/05/27 00:12:49;;;;;;;4.09;2.13;;;;;;;17.33;64.40;101109.14;486254;106;924642;-70
2021/05/27 00:13:53;;;;;;;2.59;2.32;;;;;;;17.34;64.41;101099.79;488499;106;934673;-73
2021/05/27 00:14:58;;;;;;;5.81;2.27;;;;;;;17.34;64.41;101099.79;490790;105;922627;-73
2021/05/27 00:16:02;;;;;;;5.67;2.58;;;;;;;17.31;64.39;101092.84;490427;105;930330;-73
2021/05/27 00:17:07;;;;;;;6.11;2.15;;;;;;;17.29;64.45;101096.94;489936;105;924435;-72
2021/05/27 00:18:10;;;;;;;4.08;2.42;;;;;;;17.25;64.53;101091.09;489155;105;924045;-71
2021/05/27 00:19:15;;;;;;;5.78;2.38;;;;;;;17.23;64.61;101092.41;487893;106;933208;-70
2021/05/27 00:20:20;;;;;;;5.17;2.19;;;;;;;17.20;64.65;101092.92;492373;105;924002;-72
2021/05/27 00:21:24;;;;;;;6.32;2.23;;;;;;;17.18;64.72;101092.31;494359;105;923967;-72
2021/05/27 00:22:29;;;;;;;3.86;2.13;;;;;;;17.16;64.58;101099.98;490481;105;932748;-72
2021/05/27 00:23:33;;;;;;;3.86;2.12;;;;;;;17.16;64.32;101094.47;490940;106;925142;-72
2021/05/27 00:24:37;;;;;;;5.18;2.25;;;;;;;17.17;64.03;101101.66;491231;105;924614;-71
2021/05/27 00:25:41;;;;;;;6.07;2.24;;;;;;;17.18;63.87;101097.83;488557;105;923933;-73
2021/05/27 00:26:45;;;;;;;3.37;2.41;;;;;;;17.19;63.71;101091.23;489032;105;927284;-70
2021/05/27 00:27:49;;;;;;;5.06;2.52;;;;;;;17.19;63.82;101097.59;491181;105;923996;-71
2021/05/27 00:28:53;;;;;;;3.45;2.10;;;;;;;17.17;63.88;101091.47;491507;107;924607;-73
2021/05/27 00:29:58;;;;;;;3.45;2.07;;;;;;;17.14;63.95;101094.73;491784;106;922676;-72
2021/05/27 00:31:01;;;;;;;5.39;2.58;;;;;;;17.11;64.08;101092.45;483884;106;933886;-72
2021/05/27 00:32:06;;;;;;;4.45;2.28;;;;;;;17.07;64.06;101100.38;482958;106;931947;-73
2021/05/27 00:33:10;;;;;;;4.88;2.08;;;;;;;17.05;64.07;101105.29;491665;106;922583;-71
2021/05/27 00:34:14;;;;;;;3.79;1.83;;;;;;;17.02;64.11;101102.20;485605;106;932072;-73
2021/05/27 00:35:22;;;;;;;5.43;2.12;;;;;;;16.99;64.13;101097.16;485247;106;930417;-71
2021/05/27 00:36:26;;;;;;;6.64;2.02;;;;;;;16.99;63.98;101098.00;484666;106;923986;-71
2021/05/27 00:37:30;;;;;;;2.79;2.16;;;;;;;16.99;63.80;101094.41;485605;106;922822;-72
2021/05/27 00:38:35;;;;;;;3.74;2.22;;;;;;;16.99;63.77;101097.16;489736;105;923051;-71
2021/05/27 00:39:41;;;;;;;5.51;2.14;;;;;;;17.00;63.76;101099.68;477733;107;932020;-71
2021/05/27 00:40:49;;;;;;;3.55;2.13;;;;;;;17.00;63.75;101099.68;461906;114;923120;-74
2021/05/27 00:41:54;;;;;;;6.74;2.25;;;;;;;17.01;63.64;101097.77;463972;111;922999;-73
2021/05/27 00:42:57;;;;;;;7.99;2.17;;;;;;;17.00;63.50;101102.44;478735;107;922675;-69
2021/05/27 00:44:01;;;;;;;4.45;2.46;;;;;;;16.99;63.54;101105.42;480315;107;924610;-69
2021/05/27 00:45:09;;;;;;;2.99;2.03;;;;;;;16.96;63.58;101100.42;487852;105;930577;-72
2021/05/27 00:46:19;;;;;;;3.61;1.92;;;;;;;17.02;63.60;101094.77;473571;110;948282;-71
2021/05/27 00:47:23;;;;;;;3.79;2.31;;;;;;;16.89;63.63;101107.97;461660;112;924527;-71
2021/05/27 00:49:50;;;;;;;3.67;1.87;;;;;;;16.81;63.79;101103.70;459966;112;923941;-71
2021/05/27 00:50:55;;;;;;;4.62;2.71;;;;;;;16.77;64.02;101108.00;461289;112;923046;-71
2021/05/27 00:51:58;;;;;;;3.00;2.32;;;;;;;16.77;64.06;101104.41;461496;112;930313;-74
2021/05/27 00:53:02;;;;;;;3.31;1.85;;;;;;;16.77;64.13;101108.00;460675;112;922595;-72
2021/05/27 00:54:07;;;;;;;4.99;1.86;;;;;;;16.77;64.16;101108.00;454183;114;922942;-72
2021/05/27 00:55:12;;;;;;;7.80;3.03;;;;;;;16.78;64.12;101101.42;454762;113;931740;-71
2021/05/27 00:56:16;;;;;;;4.03;2.16;;;;;;;16.78;64.10;101112.44;460410;112;922407;-73
2021/05/27 00:57:38;;;;;;;4.69;2.21;;;;;;;16.79;64.07;101111.36;460634;112;922946;-73
2021/05/27 00:58:45;;;;;;;5.39;2.03;;;;;;;16.80;63.95;101113.04;459406;112;922575;-72
2021/05/27 00:59:50;;;;;;;11.46;3.63;;;;;;;16.81;63.91;101117.47;458877;112;922723;-72
2021/05/27 01:00:54;;;;;;;4.66;2.08;;;;;;;16.81;63.90;101114.72;459494;112;930624;-72
2021/05/27 01:01:58;;;;;;;11.20;2.58;;;;;;;16.82;63.87;101116.37;457586;112;922827;-73
2021/05/27 01:03:02;;;;;;;13.89;2.85;;;;;;;16.81;63.87;101120.23;459477;112;923397;-73
2021/05/27 01:04:08;;;;;;;20.33;3.00;;;;;;;16.82;63.81;101115.52;457830;112;930433;-70
2021/05/27 01:05:14;;;;;;;15.53;2.69;;;;;;;16.83;63.86;101117.20;461321;112;922717;-71
2021/05/27 01:06:20;;;;;;;10.27;2.53;;;;;;;16.83;63.77;101117.20;457003;112;930500;-72
2021/05/27 01:07:23;;;;;;;8.30;2.40;;;;;;;16.82;63.59;101119.13;460589;112;923365;-72
2021/05/27 01:08:29;;;;;;;9.87;2.56;;;;;;;16.80;63.55;101121.30;461343;112;930329;-71
2021/05/27 01:09:33;;;;;;;13.27;3.19;;;;;;;16.79;63.60;101116.03;460413;112;922779;-73
2021/05/27 01:10:37;;;;;;;7.74;2.32;;;;;;;16.77;63.52;101116.26;460790;112;922903;-71
2021/05/27 01:11:41;;;;;;;9.13;2.14;;;;;;;16.76;63.40;101111.83;451347;115;923153;-72
2021/05/27 01:12:45;;;;;;;5.00;1.88;;;;;;;16.75;63.37;101109.34;452580;114;922580;-72
2021/05/27 01:13:49;;;;;;;9.56;2.38;;;;;;;16.70;63.38;101110.07;460293;112;922476;-73
2021/05/27 01:16:17;;;;;;;4.89;1.84;;;;;;;16.64;63.47;101117.38;460228;112;922888;-72
2021/05/27 01:17:23;;;;;;;7.92;2.53;;;;;;;16.60;63.57;101116.17;459778;112;922792;-73
2021/05/27 01:18:27;;;;;;;5.79;1.87;;;;;;;16.57;63.76;101118.55;460162;112;922787;-72
2021/05/27 01:19:32;;;;;;;3.54;2.17;;;;;;;16.55;63.83;101112.44;461670;112;924080;-72
2021/05/27 01:20:38;;;;;;;8.46;2.21;;;;;;;16.53;63.81;101114.61;459403;112;924105;-71
2021/05/27 01:21:44;;;;;;;11.98;2.31;;;;;;;16.52;63.78;101118.44;459849;112;926540;-71
2021/05/27 01:22:50;;;;;;;5.90;2.02;;;;;;;16.52;63.78;101116.52;461192;112;923823;-73
2021/05/27 01:23:55;;;;;;;5.18;1.99;;;;;;;16.52;63.84;101112.93;458954;112;924493;-70
2021/05/27 01:25:00;;;;;;;6.73;2.07;;;;;;;16.52;63.91;101116.52;458108;112;924454;-70
2021/05/27 01:26:09;;;;;;;4.00;2.26;;;;;;;16.53;63.87;101111.86;460093;112;923084;-72
2021/05/27 01:27:12;;;;;;;2.95;2.09;;;;;;;16.53;63.90;101122.87;460372;112;924293;-71
2021/05/27 01:28:18;;;;;;;3.75;1.73;;;;;;;16.51;63.88;101114.84;458197;112;924150;-72
2021/05/27 01:29:21;;;;;;;6.10;2.01;;;;;;;16.50;63.85;101115.91;457716;112;924074;-72
2021/05/27 01:30:27;;;;;;;2.63;1.67;;;;;;;16.46;63.90;101111.98;458601;112;922452;-72
2021/05/27 01:31:32;;;;;;;3.48;1.83;;;;;;;16.43;63.98;101117.14;457847;112;923558;-70
2021/05/27 01:32:36;;;;;;;6.89;2.02;;;;;;;16.37;64.09;101118.09;459450;112;922504;-70
2021/05/27 01:33:40;;;;;;;3.21;1.69;;;;;;;16.32;64.21;101117.98;460157;112;922947;-70
2021/05/27 01:34:45;;;;;;;2.91;1.52;;;;;;;16.26;64.34;101125.27;459956;112;924539;-71
2021/05/27 01:35:49;;;;;;;6.29;1.90;;;;;;;16.22;64.45;101113.05;461606;112;924061;-71
2021/05/27 01:36:57;;;;;;;3.72;1.57;;;;;;;16.19;64.50;101117.12;457808;112;924018;-72
2021/05/27 01:38:14;;;;;;;5.19;2.01;;;;;;;16.16;64.53;101125.84;461915;112;926087;-72
2021/05/27 01:39:19;;;;;;;4.51;1.87;;;;;;;16.12;64.60;101121.06;460054;112;923107;-70
2021/05/27 01:40:26;;;;;;;3.88;1.95;;;;;;;16.08;64.71;101117.12;459740;112;922627;-70
2021/05/27 01:41:29;;;;;;;3.23;2.08;;;;;;;16.06;64.80;101117.35;461028;112;924018;-72
2021/05/27 01:42:34;;;;;;;3.40;2.08;;;;;;;16.05;64.85;101118.42;459974;112;922929;-71
2021/05/27 01:43:37;;;;;;;8.70;1.80;;;;;;;16.04;64.96;101124.18;460414;112;930424;-71
2021/05/27 01:44:42;;;;;;;5.82;1.60;;;;;;;16.02;65.04;101120.81;461262;112;931898;-70
2021/05/27 01:45:47;;;;;;;4.03;1.63;;;;;;;16.01;65.14;101119.14;451774;114;924143;-71
2021/05/27 01:46:52;;;;;;;2.37;1.66;;;;;;;15.98;65.22;101117.72;446339;114;923290;-70
2021/05/27 01:47:56;;;;;;;3.67;1.69;;;;;;;15.96;65.32;101119.86;453180;114;924863;-72
2021/05/27 01:49:02;;;;;;;6.26;1.89;;;;;;;15.94;65.32;101118.41;459460;112;931829;-70
2021/05/27 01:50:09;;;;;;;2.65;1.96;;;;;;;15.91;65.33;101118.89;456408;112;924143;-72
2021/05/27 01:51:14;;;;;;;3.35;1.33;;;;;;;15.85;65.37;101128.92;456331;112;924116;-72
2021/05/27 01:52:18;;;;;;;3.38;1.67;;;;;;;15.79;65.45;101119.70;459969;112;923986;-73
2021/05/27 01:53:23;;;;;;;3.33;1.55;;;;;;;15.79;65.61;101114.20;460254;112;922924;-70
2021/05/27 01:54:27;;;;;;;3.41;1.46;;;;;;;15.78;65.72;101114.44;461111;112;922780;-71
2021/05/27 01:55:31;;;;;;;5.65;1.59;;;;;;;15.74;65.77;101116.83;462235;112;932223;-70
2021/05/27 01:56:37;;;;;;;4.51;1.83;;;;;;;15.72;65.77;101118.13;460592;112;922846;-71
2021/05/27 01:57:41;;;;;;;3.75;1.66;;;;;;;15.70;65.73;101117.54;461247;112;930609;-73
2021/05/27 01:58:47;;;;;;;4.89;1.65;;;;;;;15.68;65.77;101126.02;448708;117;922986;-72
2021/05/27 01:59:50;;;;;;;11.63;2.10;;;;;;;15.65;65.84;101115.50;463699;112;923360;-72
2021/05/27 02:00:54;;;;;;;8.23;2.46;;;;;;;15.62;65.88;101117.86;461260;112;927272;-70
2021/05/27 02:02:00;;;;;;;7.26;1.85;;;;;;;15.59;65.95;101126.59;459639;112;922913;-71
2021/05/27 02:03:05;;;;;;;5.22;2.74;;;;;;;15.58;66.03;101119.41;454086;115;922546;-72
2021/05/27 02:04:10;;;;;;;11.28;2.17;;;;;;;15.59;66.15;101118.34;452479;114;922670;-72
2021/05/27 02:05:14;;;;;;;12.51;2.56;;;;;;;15.59;66.25;101119.19;459922;112;922918;-72
2021/05/27 02:06:18;;;;;;;13.46;2.21;;;;;;;15.62;66.47;101123.36;458874;112;930698;-71
2021/05/27 02:07:23;;;;;;;6.02;1.84;;;;;;;15.65;66.51;101121.00;459310;112;930451;-70
2021/05/27 02:08:29;;;;;;;11.00;2.08;;;;;;;15.66;66.49;101116.31;459304;112;922459;-72
2021/05/27 02:09:35;;;;;;;5.68;2.27;;;;;;;15.66;66.53;101114.41;459720;112;922875;-72
2021/05/27 02:10:41;;;;;;;3.16;1.77;;;;;;;15.67;66.62;101120.74;458713;112;922490;-71
2021/05/27 02:11:48;;;;;;;4.16;1.95;;;;;;;15.69;66.60;101126.86;457209;112;922924;-71
2021/05/27 02:12:54;;;;;;;6.06;1.96;;;;;;;15.68;66.55;101119.67;454595;114;922816;-71
2021/05/27 02:13:57;;;;;;;5.10;2.25;;;;;;;15.68;66.44;101119.67;454529;114;923124;-72
2021/05/27 02:15:04;;;;;;;3.71;1.88;;;;;;;15.67;66.41;101126.24;458860;112;922609;-70
2021/05/27 02:16:08;;;;;;;4.66;1.79;;;;;;;15.64;66.41;101121.23;460033;112;922801;-71
2021/05/27 02:17:12;;;;;;;4.46;2.16;;;;;;;15.61;66.41;101128.02;461081;112;924050;-69
2021/05/27 02:18:17;;;;;;;9.44;2.19;;;;;;;15.58;66.46;101130.41;456325;114;922812;-73
2021/05/27 02:19:22;;;;;;;4.87;1.96;;;;;;;15.56;66.53;101127.05;456091;114;926102;-71
2021/05/27 02:20:28;;;;;;;5.22;1.91;;;;;;;15.55;66.67;101126.20;453776;115;922555;-72
2021/05/27 02:21:34;;;;;;;6.72;2.13;;;;;;;15.58;66.90;101127.66;444727;116;924182;-71
2021/05/27 02:22:42;;;;;;;8.96;2.92;;;;;;;15.61;67.06;101127.17;460526;112;924043;-73
2021/05/27 02:23:55;;;;;;;5.27;2.37;;;;;;;15.65;67.09;101128.41;452780;115;924117;-73
2021/05/27 02:25:02;;;;;;;10.16;2.32;;;;;;;15.67;67.08;101121.59;453563;112;924188;-71
2021/05/27 02:26:06;;;;;;;5.31;2.32;;;;;;;15.70;67.13;101120.29;458323;112;922468;-71
2021/05/27 02:27:15;;;;;;;4.37;1.91;;;;;;;15.72;67.20;101118.97;456272;112;922575;-73
2021/05/27 02:28:19;;;;;;;2.88;2.22;;;;;;;15.74;67.27;101130.58;450438;115;927057;-71
2021/05/27 02:29:23;;;;;;;5.22;2.35;;;;;;;15.75;67.27;101121.26;450110;114;922715;-72
2021/05/27 02:30:30;;;;;;;3.75;1.87;;;;;;;15.78;67.30;101125.43;460889;112;924016;-72
2021/05/27 02:31:35;;;;;;;2.82;1.94;;;;;;;15.79;67.31;101124.36;459744;112;924020;-71
2021/05/27 02:32:41;;;;;;;2.41;1.91;;;;;;;15.80;67.33;101128.80;457955;112;923987;-72
2021/05/27 02:33:50;;;;;;;2.76;2.06;;;;;;;15.82;67.42;101132.16;457631;112;923034;-72
2021/05/27 02:34:57;;;;;;;6.82;2.56;;;;;;;15.85;67.54;101131.67;452215;115;925875;-72
2021/05/27 02:36:05;;;;;;;6.11;2.29;;;;;;;15.89;67.55;101129.28;454222;112;924092;-71
2021/05/27 02:37:09;;;;;;;3.73;2.25;;;;;;;15.93;67.47;101125.00;458652;112;922584;-71
2021/05/27 02:38:15;;;;;;;6.38;2.49;;;;;;;15.98;67.29;101127.88;458678;112;925465;-72
2021/05/27 02:39:20;;;;;;;4.64;2.38;;;;;;;16.02;67.11;101126.32;459879;112;922574;-70
2021/05/27 02:40:28;;;;;;;7.52;1.92;;;;;;;16.05;67.03;101126.67;461254;112;924036;-72
2021/05/27 02:41:33;;;;;;;4.52;2.07;;;;;;;16.10;66.79;101126.80;459747;112;922511;-69
2021/05/27 02:42:37;;;;;;;5.43;2.31;;;;;;;16.13;66.64;101123.58;461139;112;923950;-72
2021/05/27 02:43:42;;;;;;;3.71;1.78;;;;;;;16.15;66.52;101126.11;461562;112;923129;-72
2021/05/27 02:44:47;;;;;;;7.85;2.56;;;;;;;16.15;66.55;101129.66;460323;112;924107;-71
2021/05/27 02:45:52;;;;;;;4.83;2.46;;;;;;;16.16;66.61;101133.26;458821;112;922981;-72
2021/05/27 02:46:58;;;;;;;4.44;1.95;;;;;;;16.17;66.53;101127.53;459786;112;922487;-71
2021/05/27 02:48:03;;;;;;;8.54;2.30;;;;;;;16.20;66.45;101132.57;461186;112;923130;-71
2021/05/27 02:49:09;;;;;;;4.74;2.05;;;;;;;16.24;66.37;101128.26;459651;112;922899;-72
2021/05/27 02:50:15;;;;;;;4.84;2.24;;;;;;;16.27;66.26;101133.27;458657;112;924013;-72
2021/05/27 02:51:19;;;;;;;8.62;2.76;;;;;;;16.32;66.13;101126.23;459086;112;923939;-71
2021/05/27 02:52:23;;;;;;;6.52;2.41;;;;;;;16.36;65.99;101130.17;459948;112;922483;-72
2021/05/27 02:53:28;;;;;;;6.91;2.38;;;;;;;16.39;65.86;101130.52;459834;112;924086;-70
2021/05/27 02:54:32;;;;;;;6.46;2.57;;;;;;;16.43;65.72;101134.45;459840;112;923289;-71
2021/05/27 02:55:37;;;;;;;8.93;2.23;;;;;;;16.46;65.62;101131.24;458178;112;922432;-72
2021/05/27 02:56:43;;;;;;;4.88;2.20;;;;;;;16.49;65.53;101130.75;459829;112;924248;-71
2021/05/27 02:57:48;;;;;;;8.06;2.76;;;;;;;16.52;65.51;101132.20;459462;112;923602;-71
2021/05/27 02:58:53;;;;;;;6.09;3.14;;;;;;;16.54;65.31;101135.56;453301;115;924090;-72
2021/05/27 02:59:57;;;;;;;7.74;2.72;;;;;;;16.54;65.23;101130.86;453629;112;922856;-71
2021/05/27 03:01:03;;;;;;;6.51;3.14;;;;;;;16.58;65.21;101131.23;457924;112;930520;-72
2021/05/27 03:02:09;;;;;;;9.30;2.51;;;;;;;16.59;65.12;101132.95;462086;112;926162;-74
2021/05/27 03:03:21;;;;;;;5.38;3.13;;;;;;;16.62;65.12;101144.31;455464;114;922493;-71
2021/05/27 03:04:23;;;;;;;5.49;2.89;;;;;;;16.63;65.15;101134.98;457149;112;922622;-71
2021/05/27 03:05:27;;;;;;;7.50;2.84;;;;;;;16.66;65.06;101139.98;459830;112;922727;-73
2021/05/27 03:06:32;;;;;;;11.08;3.28;;;;;;;16.68;65.02;101137.00;459921;112;922477;-71
2021/05/27 03:07:36;;;;;;;3.99;2.81;;;;;;;16.71;64.90;101141.17;460245;112;922980;-70
2021/05/27 03:08:41;;;;;;;8.12;3.49;;;;;;;16.71;64.89;101142.01;460325;112;930619;-72
2021/05/27 03:09:45;;;;;;;7.65;3.59;;;;;;;16.73;64.83;101142.62;458743;112;922992;-73
2021/05/27 03:10:51;;;;;;;9.98;3.46;;;;;;;16.74;64.80;101136.04;459498;112;930750;-72
2021/05/27 03:11:55;;;;;;;7.06;3.51;;;;;;;16.75;64.78;101140.47;460472;112;922167;-71
2021/05/27 03:13:01;;;;;;;7.52;3.43;;;;;;;16.77;64.83;101141.05;460340;112;922468;-74
2021/05/27 03:14:07;;;;;;;7.87;3.61;;;;;;;16.79;64.87;101149.08;446997;116;922563;-72
2021/05/27 03:15:13;;;;;;;6.51;4.04;;;;;;;16.81;64.89;101142.27;441864;112;922888;-73
2021/05/27 03:16:18;;;;;;;9.39;3.55;;;;;;;16.83;64.79;101151.09;457130;112;922696;-73
2021/05/27 03:17:22;;;;;;;8.39;3.49;;;;;;;16.84;64.77;101138.16;453496;114;924298;-75
2021/05/27 03:18:27;;;;;;;8.38;3.87;;;;;;;16.85;64.77;101151.70;452939;112;922581;-74
2021/05/27 03:19:31;;;;;;;9.41;4.85;;;;;;;16.86;64.81;101141.53;460366;112;922806;-73
2021/05/27 03:20:37;;;;;;;6.72;4.65;;;;;;;16.87;64.67;101149.52;457100;112;932473;-71
2021/05/27 03:21:43;;;;;;;10.06;4.32;;;;;;;16.88;64.60;101148.45;453110;115;922708;-71
2021/05/27 03:22:48;;;;;;;8.96;3.78;;;;;;;16.89;64.62;101147.38;452998;112;922576;-70
2021/05/27 03:23:54;;;;;;;6.33;3.14;;;;;;;16.90;64.64;101140.80;458952;112;923585;-73
2021/05/27 03:24:58;;;;;;;6.84;3.25;;;;;;;16.93;64.60;101151.31;451317;115;924135;-70
2021/05/27 03:26:07;;;;;;;9.12;3.57;;;;;;;16.94;64.58;101144.73;453337;112;931993;-70
2021/05/27 03:27:11;;;;;;;5.24;3.37;;;;;;;16.98;64.58;101147.86;461757;112;922536;-71
2021/05/27 03:28:15;;;;;;;4.49;2.54;;;;;;;17.00;64.55;101143.76;461030;112;922893;-71
2021/05/27 03:29:19;;;;;;;6.66;3.11;;;;;;;17.04;64.49;101152.36;459319;112;922629;-72
2021/05/27 03:30:24;;;;;;;4.84;3.02;;;;;;;17.04;64.55;101146.86;461380;112;930378;-72
2021/05/27 03:31:27;;;;;;;8.20;3.35;;;;;;;17.07;64.52;101143.62;459719;112;932553;-74
2021/05/27 03:32:31;;;;;;;3.36;2.54;;;;;;;17.09;64.55;101145.04;461680;112;924403;-72
2021/05/27 03:33:35;;;;;;;5.15;3.20;;;;;;;17.10;64.50;101149.47;460508;112;922782;-71
2021/05/27 03:34:39;;;;;;;3.95;3.19;;;;;;;17.13;64.54;101147.33;460183;112;923897;-72
2021/05/27 03:35:44;;;;;;;4.24;2.56;;;;;;;17.16;64.46;101147.66;459616;112;925220;-72
2021/05/27 03:36:48;;;;;;;5.66;3.38;;;;;;;17.18;64.51;101148.27;459836;112;924488;-73
2021/05/27 03:37:53;;;;;;;5.38;3.37;;;;;;;17.22;64.47;101151.36;461036;112;933335;-71
2021/05/27 03:38:59;;;;;;;7.59;3.02;;;;;;;17.23;64.37;101145.61;459922;112;922858;-74
2021/05/27 03:40:14;;;;;;;5.06;3.46;;;;;;;17.25;64.30;101151.73;459651;112;922702;-70
2021/05/27 03:41:18;;;;;;;5.79;3.76;;;;;;;17.27;64.22;101141.27;461041;112;924043;-71
2021/05/27 03:42:22;;;;;;;9.61;4.04;;;;;;;17.28;64.27;101148.47;458720;112;925779;-72
2021/05/27 03:43:26;;;;;;;4.90;3.56;;;;;;;17.29;64.26;101155.66;459496;112;923001;-72
2021/05/27 03:44:31;;;;;;;6.31;3.44;;;;;;;17.30;64.25;101140.80;457997;112;923096;-71
2021/05/27 03:45:36;;;;;;;9.32;3.42;;;;;;;17.31;64.19;101142.45;457389;112;922731;-73
2021/05/27 03:46:46;;;;;;;;;;;;;;;17.32;64.22;101143.29;461520;112;923347;-70
2021/05/27 03:47:50;;;;;;;8.56;3.41;;;;;;;17.31;64.23;101144.40;453541;114;923855;-70
2021/05/27 03:48:54;;;;;;;5.01;3.25;;;;;;;17.29;64.26;101154.82;453992;114;926534;-71
2021/05/27 03:49:59;;;;;;;5.69;3.14;;;;;;;17.27;64.31;101149.55;444090;116;924103;-71
2021/05/27 03:51:03;;;;;;;10.84;3.68;;;;;;;17.29;64.50;101155.66;444586;115;931989;-72
2021/05/27 03:52:08;;;;;;;10.33;3.56;;;;;;;17.32;64.52;101151.56;454067;114;924086;-70
2021/05/27 03:53:15;;;;;;;9.57;4.20;;;;;;;17.35;64.41;101145.57;453950;114;924012;-71
2021/05/27 03:54:24;;;;;;;11.41;4.07;;;;;;;17.38;64.31;101147.82;445162;117;922551;-70
2021/05/27 03:55:31;;;;;;;6.19;3.77;;;;;;;17.42;64.26;101149.84;432762;118;924119;-72
2021/05/27 03:56:36;;;;;;;6.52;3.69;;;;;;;17.45;64.07;101149.36;434356;117;923008;-71
2021/05/27 03:57:40;;;;;;;11.63;4.01;;;;;;;17.49;63.91;101150.53;446445;114;922686;-71
2021/05/27 04:01:33;;;;;;;11.92;4.29;;;;;;;17.62;63.80;101154.11;452888;114;922415;-72
2021/05/27 04:02:56;;;;;;;12.32;5.21;;;;;;;17.65;63.46;101148.92;431918;119;923164;-71
2021/05/27 04:08:10;;;;;;;10.39;4.95;;;;;;;17.77;63.24;101157.14;453777;115;922878;-72
2021/05/27 04:09:14;;;;;;;13.06;4.72;;;;;;;17.78;63.21;101164.34;454385;114;923416;-70
2021/05/27 04:10:19;;;;;;;7.77;4.63;;;;;;;17.80;63.10;101157.50;453806;114;922375;-72
2021/05/27 04:11:23;;;;;;;11.88;4.87;;;;;;;17.80;62.87;101163.02;454155;114;923010;-71
2021/05/27 04:13:48;;;;;;;6.40;3.67;;;;;;;17.78;62.76;101145.87;454938;114;930659;-72
2021/05/27 04:16:18;;;;;;;5.96;2.88;;;;;;;17.76;62.46;101149.95;453233;115;922845;-71
2021/05/27 04:17:21;;;;;;;4.60;3.21;;;;;;;17.74;62.37;101147.45;453333;114;922533;-71
2021/05/27 04:18:25;;;;;;;6.08;5.29;;;;;;;17.74;62.32;101150.22;452993;114;922964;-70
2021/05/27 04:19:29;;;;;;;9.72;4.57;;;;;;;17.75;62.20;101143.59;453973;115;922539;-70
2021/05/27 04:20:46;;;;;;;5.29;3.05;;;;;;;17.76;62.14;101156.30;453290;115;922642;-72
2021/05/27 04:21:50;;;;;;;6.37;2.31;;;;;;;17.78;62.12;101148.63;451821;115;922881;-70
2021/05/27 04:22:54;;;;;;;6.39;2.44;;;;;;;17.80;62.14;101151.15;454786;114;923196;-74
2021/05/27 04:23:58;;;;;;;5.57;2.85;;;;;;;17.80;62.10;101146.47;453349;114;930413;-71
2021/05/27 04:25:01;;;;;;;4.54;2.60;;;;;;;17.80;62.10;101151.98;452170;115;922900;-74
2021/05/27 04:26:14;;;;;;;9.01;2.69;;;;;;;17.78;62.07;101153.30;454399;115;923060;-75
2021/05/27 04:27:18;;;;;;;5.64;2.97;;;;;;;17.75;62.06;101151.06;454875;114;931952;-71
2021/05/27 04:28:23;;;;;;;13.39;3.48;;;;;;;17.72;62.12;101155.13;452544;114;922773;-73
2021/05/27 04:29:27;;;;;;;7.97;2.82;;;;;;;17.69;62.25;101155.64;452024;115;922700;-73
2021/05/27 04:30:31;;;;;;;13.48;2.92;;;;;;;17.67;62.41;101146.77;452679;114;930518;-72
2021/05/27 04:31:35;;;;;;;7.16;3.17;;;;;;;17.67;62.50;101152.28;452803;115;922929;-77
2021/05/27 04:34:02;;;;;;;9.90;3.25;;;;;;;17.65;62.62;101157.20;434312;120;922598;-70
2021/05/27 04:35:07;;;;;;;8.90;3.05;;;;;;;17.64;62.68;101152.77;439229;118;923028;-73
2021/05/27 04:36:13;;;;;;;9.35;3.39;;;;;;;17.63;62.78;101156.63;438580;118;923120;-70
2021/05/27 04:37:17;;;;;;;24.55;3.80;;;;;;;17.64;62.94;101150.00;437917;118;925954;-74
2021/05/27 04:38:21;;;;;;;19.79;4.90;;;;;;;17.65;63.01;101148.09;438407;119;922681;-72
2021/05/27 04:39:24;;;;;;;8.93;2.94;;;;;;;17.66;63.04;101147.84;438753;117;930398;-72
2021/05/27 04:40:28;;;;;;;8.89;3.32;;;;;;;17.67;62.86;101151.45;438885;118;930417;-69
2021/05/27 04:41:32;;;;;;;9.48;3.36;;;;;;;17.68;62.82;101144.85;438376;118;922956;-69
2021/05/27 04:42:36;;;;;;;7.14;3.04;;;;;;;17.69;62.84;101150.12;437863;119;922516;-72
2021/05/27 04:43:39;;;;;;;12.14;3.17;;;;;;;17.72;62.89;101146.86;438374;119;931186;-71
2021/05/27 04:44:43;;;;;;;8.84;2.81;;;;;;;17.77;62.86;101146.95;438026;118;924582;-73
2021/05/27 04:45:47;;;;;;;12.10;3.61;;;;;;;17.80;62.79;101148.39;437747;118;923974;-69
2021/05/27 04:46:54;;;;;;;14.88;3.45;;;;;;;17.85;62.76;101146.55;437785;119;924050;-69
2021/05/27 04:48:05;;;;;;;10.36;3.27;;;;;;;17.91;62.67;101150.24;431177;121;923186;-71
2021/05/27 04:49:11;;;;;;;11.19;3.38;;;;;;;17.95;62.64;101143.13;433555;118;922767;-72
2021/05/27 04:50:18;;;;;;;19.36;3.81;;;;;;;18.00;62.54;101139.61;445111;115;923247;-71
2021/05/27 04:51:22;;;;;;;12.32;3.45;;;;;;;18.06;62.52;101141.38;449548;114;922652;-71
2021/05/27 04:52:26;;;;;;;9.09;3.34;;;;;;;18.09;62.52;101138.10;450936;113;922972;-69
2021/05/27 04:53:30;;;;;;;12.24;3.29;;;;;;;18.11;62.55;101133.18;451954;114;930553;-70
2021/05/27 04:54:34;;;;;;;8.21;2.91;;;;;;;18.15;62.60;101137.09;444047;116;923471;-70
2021/05/27 04:55:38;;;;;;;7.08;3.05;;;;;;;18.17;62.52;101133.02;442521;117;922472;-71
2021/05/27 04:56:44;;;;;;;12.48;3.20;;;;;;;18.20;62.21;101134.42;440711;117;930763;-70
2021/05/27 04:57:47;;;;;;;9.59;2.93;;;;;;;18.21;61.98;101130.58;441658;117;922733;-69
2021/05/27 04:58:51;;;;;;;14.59;3.34;;;;;;;18.22;61.83;101138.61;441185;118;922465;-71
2021/05/27 04:59:54;;;;;;;10.44;3.96;;;;;;;18.21;61.86;101136.94;439922;118;922705;-71
2021/05/27 05:00:59;;;;;;;10.15;3.22;;;;;;;18.24;61.83;101136.45;441652;117;922582;-71
2021/05/27 05:02:03;;;;;;;18.68;3.75;;;;;;;18.26;61.78;101131.49;441306;119;930530;-69
2021/05/27 05:03:07;;;;;;;12.57;3.48;;;;;;;18.28;61.81;101136.77;439234;117;930479;-69
2021/05/27 05:04:10;;;;;;;18.64;3.87;;;;;;;18.30;61.87;101134.61;439368;117;922517;-71
2021/05/27 05:05:17;;;;;;;14.68;3.33;;;;;;;18.34;61.79;101141.28;440270;119;924498;-72
2021/05/27 05:06:23;;;;;;;9.48;2.88;;;;;;;18.38;61.67;101141.61;440620;117;924111;-70
2021/05/27 05:07:27;;;;;;;21.30;4.21;;;;;;;18.41;61.60;101130.91;440058;119;922577;-71
2021/05/27 05:08:32;;;;;;;16.12;3.42;;;;;;;18.47;61.56;101135.39;439950;118;922855;-72
2021/05/27 05:09:35;;;;;;;8.16;2.94;;;;;;;18.50;61.15;101139.59;439928;118;923010;-72
2021/05/27 05:10:43;;;;;;;5.29;3.00;;;;;;;18.52;60.88;101132.73;441192;117;925764;-72
2021/05/27 05:11:46;;;;;;;10.23;3.05;;;;;;;18.57;60.96;101135.60;441253;118;922999;-71
2021/05/27 05:12:51;;;;;;;8.54;3.52;;;;;;;18.61;61.04;101133.16;439177;118;922954;-72
2021/05/27 05:13:55;;;;;;;14.34;3.92;;;;;;;18.66;61.07;101139.59;440100;119;922633;-72